Terminal Aerodrome Forecast
Issued by NWS

Home | Current Version | Previous Version | Text Only | Print | Product List | Glossary On
Versions: 1 2 3 4 5 6 7 8 9 10 11 12 13 14 15 16 17 18 19 20 21 22 23 24 25 26 27 28 29 30 31 32 33 34 35 36 37 38 39 40
000
FTUS41 KBOX 050919 AAC
TAFACK
TAF AMD
KACK 050919Z 0509/0606 29005KT 1 1/2SM -RA BR OVC040
     FM051000 34009KT 3/4SM -RASNPL BR OVC005
     FM051200 36011KT 3/4SM -SN BR OVC003
     FM051500 35013KT 2SM -SN BR OVC008
     FM052300 33011KT 3SM BR OVC015
     FM060000 33011KT P6SM OVC050
     FM060500 35014KT P6SM SCT050=

USA.gov is the U.S. government's official web portal to all federal, state and local government web resources and services.